createdAt,value
2024-01-06T00:00:25.609Z,62.57
2024-01-06T00:05:27.762Z,62.77
2024-01-06T00:10:29.731Z,61.91
2024-01-06T00:15:31.752Z,62.00
2024-01-06T00:20:33.921Z,62.38
2024-01-06T00:25:35.808Z,61.52
2024-01-06T00:30:37.742Z,61.29
2024-01-06T00:35:40.034Z,62.21
2024-01-06T00:40:41.979Z,63.93
2024-01-06T00:45:44.274Z,64.04
2024-01-06T00:50:46.206Z,64.22
2024-01-06T00:55:48.071Z,65.28
2024-01-06T01:00:50.237Z,63.91
2024-01-06T01:05:52.205Z,63.61
2024-01-06T01:10:54.183Z,63.24
2024-01-06T01:15:56.599Z,62.93
2024-01-06T01:20:58.546Z,63.34
2024-01-06T01:26:00.505Z,63.10
2024-01-06T01:31:02.708Z,63.36
2024-01-06T01:36:04.827Z,63.47
2024-01-06T01:41:06.796Z,66.04
2024-01-06T01:46:08.792Z,66.09
2024-01-06T01:51:11.102Z,66.78
2024-01-06T01:56:13.536Z,66.64
2024-01-06T02:01:16.522Z,65.13
2024-01-06T02:06:18.479Z,65.97
2024-01-06T02:11:20.535Z,66.73
2024-01-06T02:16:22.523Z,66.32
2024-01-06T02:21:25.104Z,65.88
2024-01-06T02:26:27.060Z,66.07
2024-01-06T02:31:29.398Z,64.64
2024-01-06T02:36:31.442Z,65.22
2024-01-06T02:41:33.739Z,65.42
2024-01-06T02:46:35.657Z,66.71
2024-01-06T02:51:39.216Z,68.06
2024-01-06T02:56:41.279Z,66.29
2024-01-06T03:01:43.341Z,66.47
2024-01-06T03:06:47.300Z,67.27
2024-01-06T03:11:49.407Z,70.45
2024-01-06T03:16:51.656Z,67.89
2024-01-06T03:21:53.643Z,70.47
2024-01-06T03:26:55.586Z,69.20
2024-01-06T03:31:57.681Z,70.24
2024-01-06T03:36:59.552Z,68.76
2024-01-06T03:42:01.893Z,70.99
2024-01-06T03:47:03.867Z,70.47
2024-01-06T03:52:06.164Z,70.55
2024-01-06T03:57:08.306Z,69.12
2024-01-06T04:02:10.298Z,69.76
2024-01-06T04:07:12.244Z,69.11
2024-01-06T04:12:14.289Z,69.26
2024-01-06T04:17:16.205Z,66.77
2024-01-06T04:22:18.111Z,66.52
2024-01-06T04:27:20.251Z,66.16
2024-01-06T04:32:22.139Z,67.87
2024-01-06T04:37:24.073Z,65.78
2024-01-06T04:42:26.772Z,66.31
2024-01-06T04:47:29.128Z,65.81
2024-01-06T04:52:31.216Z,66.90
2024-01-06T04:57:33.114Z,69.17
2024-01-06T05:02:35.529Z,67.79
2024-01-06T05:07:37.388Z,68.93
2024-01-06T05:12:39.446Z,69.06
2024-01-06T05:17:41.524Z,69.68
2024-01-06T05:22:43.470Z,70.43
2024-01-06T05:27:45.364Z,70.83
2024-01-06T05:32:47.335Z,69.92
2024-01-06T05:37:49.322Z,70.02
2024-01-06T05:42:54.274Z,70.31
2024-01-06T05:47:56.306Z,69.36
2024-01-06T05:52:58.326Z,68.06
2024-01-06T05:58:00.541Z,67.63
2024-01-06T06:03:02.461Z,68.57
2024-01-06T06:08:04.721Z,68.45
2024-01-06T06:13:06.665Z,70.30
2024-01-06T06:18:08.672Z,70.57
2024-01-06T06:23:13.686Z,70.71
2024-01-06T06:28:15.790Z,70.83
2024-01-06T06:33:18.489Z,71.16
2024-01-06T06:38:20.519Z,71.36
2024-01-06T06:43:22.423Z,71.22
2024-01-06T06:48:24.474Z,71.01
2024-01-06T06:53:26.372Z,70.80
2024-01-06T06:58:28.352Z,70.99
2024-01-06T07:03:30.344Z,70.50
2024-01-06T07:08:32.465Z,68.02
2024-01-06T07:13:34.336Z,68.66
2024-01-06T07:18:36.345Z,68.09
2024-01-06T07:23:38.320Z,67.79
2024-01-06T07:28:40.940Z,68.07
2024-01-06T07:33:45.644Z,67.85
2024-01-06T07:38:47.637Z,68.32
2024-01-06T07:43:49.465Z,67.49
2024-01-06T07:48:51.526Z,67.90
2024-01-06T07:53:53.507Z,67.88
2024-01-06T07:58:55.614Z,68.52
2024-01-06T08:03:58.531Z,68.79
2024-01-06T08:09:00.750Z,68.60
2024-01-06T08:14:02.842Z,68.72
2024-01-06T08:19:04.776Z,70.16
2024-01-06T08:24:06.891Z,70.03
2024-01-06T08:29:08.968Z,69.37
2024-01-06T08:34:36.130Z,70.27
2024-01-06T08:39:38.121Z,70.05
2024-01-06T08:44:41.378Z,69.78
2024-01-06T08:49:43.576Z,69.52
2024-01-06T08:54:47.057Z,70.50
2024-01-06T08:59:48.972Z,68.74
2024-01-06T09:04:51.088Z,69.23
2024-01-06T09:09:53.131Z,70.80
2024-01-06T09:14:55.141Z,70.95
2024-01-06T09:19:57.120Z,72.87
2024-01-06T09:25:01.633Z,73.97
2024-01-06T09:30:03.968Z,75.51
2024-01-06T09:35:06.322Z,75.89
2024-01-06T09:40:17.405Z,74.28
2024-01-06T09:45:28.736Z,75.94
2024-01-06T09:50:31.677Z,74.86
2024-01-06T09:55:33.881Z,74.68
2024-01-06T10:00:35.915Z,75.21
2024-01-06T10:05:37.924Z,75.11
2024-01-06T10:10:39.870Z,76.58
2024-01-06T10:15:41.950Z,76.52
2024-01-06T10:20:46.667Z,76.92
2024-01-06T10:25:48.606Z,76.97
2024-01-06T10:30:55.007Z,76.94
2024-01-06T10:41:56.410Z,77.47
2024-01-06T10:46:59.872Z,77.35
2024-01-06T10:52:02.599Z,76.96
2024-01-06T10:57:05.996Z,76.10
2024-01-06T11:02:09.704Z,76.25
2024-01-06T11:07:12.690Z,76.13
2024-01-06T11:12:14.821Z,76.60
2024-01-06T11:17:55.539Z,76.30
2024-01-06T11:23:24.390Z,76.03
2024-01-06T11:28:26.659Z,76.76
2024-01-06T11:33:28.807Z,75.88
2024-01-06T11:38:38.636Z,75.83
2024-01-06T11:43:41.726Z,75.37
2024-01-06T11:48:52.045Z,74.12
2024-01-06T11:53:54.398Z,75.10
2024-01-06T11:58:57.302Z,74.47
2024-01-06T12:03:59.349Z,74.74
2024-01-06T12:09:08.400Z,75.13
2024-01-06T12:14:10.233Z,73.97
2024-01-06T12:19:12.356Z,77.78
2024-01-06T12:24:18.816Z,57.56
2024-01-06T12:29:20.943Z,60.13
2024-01-06T12:34:23.758Z,61.04
2024-01-06T12:39:29.394Z,60.02
2024-01-06T12:44:33.704Z,59.89
2024-01-06T12:49:39.169Z,60.69
2024-01-06T12:54:44.690Z,61.86
2024-01-06T12:59:48.498Z,60.81
2024-01-06T13:04:50.532Z,62.64
2024-01-06T13:09:52.809Z,63.45
2024-01-06T13:14:54.777Z,62.74
2024-01-06T13:19:57.523Z,63.47
2024-01-06T13:25:00.350Z,61.98
2024-01-06T13:30:02.347Z,61.38
2024-01-06T13:35:06.850Z,64.00
2024-01-06T13:40:10.613Z,64.18
2024-01-06T13:45:13.666Z,62.71
2024-01-06T13:50:18.121Z,62.81
2024-01-06T13:55:20.103Z,62.82
2024-01-06T14:00:22.212Z,62.86
2024-01-06T14:05:24.420Z,62.86
2024-01-06T14:10:27.732Z,62.33
2024-01-06T14:15:32.134Z,62.73
2024-01-06T14:20:38.991Z,61.85
2024-01-06T14:25:41.016Z,61.74
2024-01-06T14:30:43.035Z,62.20
2024-01-06T14:35:45.282Z,61.65
2024-01-06T14:40:47.224Z,61.14
2024-01-06T14:45:49.589Z,62.14
2024-01-06T14:50:52.310Z,62.50
2024-01-06T14:55:54.644Z,61.92
2024-01-06T15:00:57.287Z,62.68
2024-01-06T15:05:59.324Z,61.99
2024-01-06T15:11:01.388Z,62.06
2024-01-06T15:16:04.020Z,60.94
2024-01-06T15:21:06.668Z,61.69
2024-01-06T15:26:08.539Z,61.02
2024-01-06T15:31:10.690Z,60.58
2024-01-06T15:36:12.692Z,60.81
2024-01-06T15:41:15.766Z,60.72
2024-01-06T15:46:18.546Z,61.65
2024-01-06T15:51:24.368Z,61.28
2024-01-06T15:56:27.131Z,61.58
2024-01-06T16:01:31.838Z,61.33
2024-01-06T16:06:37.088Z,60.95
2024-01-06T16:11:46.957Z,62.04
2024-01-06T16:16:54.776Z,61.73
2024-01-06T16:22:11.271Z,61.38
2024-01-06T16:27:22.105Z,60.72
2024-01-06T16:32:29.718Z,61.27
2024-01-06T16:37:32.848Z,61.23
2024-01-06T16:42:34.861Z,60.90
2024-01-06T16:47:37.133Z,61.54
2024-01-06T16:52:41.154Z,60.28
2024-01-06T16:57:43.304Z,60.12
2024-01-06T17:02:45.214Z,60.80
2024-01-06T17:07:48.385Z,60.84
2024-01-06T17:12:50.481Z,60.63
2024-01-06T17:17:52.458Z,60.60
2024-01-06T17:22:54.901Z,60.61
2024-01-06T17:27:57.067Z,60.31
2024-01-06T17:32:59.059Z,60.51
2024-01-06T17:38:01.164Z,60.92
2024-01-06T17:43:03.225Z,59.78
2024-01-06T17:48:06.104Z,60.08
2024-01-06T17:53:08.040Z,59.61
2024-01-06T17:58:10.049Z,59.76
2024-01-06T18:03:12.159Z,59.99
2024-01-06T18:08:14.199Z,58.79
2024-01-06T18:13:16.151Z,58.77
2024-01-06T18:18:18.274Z,58.63
2024-01-06T18:23:20.341Z,58.97
2024-01-06T18:28:25.319Z,58.53
2024-01-06T18:33:27.934Z,58.60
2024-01-06T18:38:30.543Z,58.43
2024-01-06T18:43:33.675Z,58.15
2024-01-06T18:48:35.896Z,58.48
2024-01-06T18:53:40.486Z,58.39
2024-01-06T18:58:42.836Z,58.20
2024-01-06T19:03:44.989Z,58.46
2024-01-06T19:08:47.348Z,58.95
2024-01-06T19:13:49.292Z,57.85
2024-01-06T19:18:51.300Z,58.31
2024-01-06T19:23:53.227Z,58.89
2024-01-06T19:28:55.204Z,58.45
2024-01-06T19:33:57.277Z,58.43
2024-01-06T19:38:59.241Z,58.00
2024-01-06T19:44:02.626Z,58.06
2024-01-06T19:49:05.973Z,57.65
2024-01-06T19:54:10.816Z,58.32
2024-01-06T19:59:21.113Z,58.41
2024-01-06T20:04:23.098Z,59.54
2024-01-06T20:09:25.025Z,58.52
2024-01-06T20:14:26.959Z,58.87
2024-01-06T20:19:29.105Z,58.08
2024-01-06T20:24:31.520Z,57.47
2024-01-06T20:29:33.391Z,58.50
2024-01-06T20:34:35.446Z,58.02
2024-01-06T20:39:37.479Z,59.27
2024-01-06T20:44:39.413Z,58.32
2024-01-06T20:49:42.337Z,58.16
2024-01-06T20:54:44.319Z,57.30
2024-01-06T20:59:46.261Z,57.79
2024-01-06T21:04:50.553Z,57.75
2024-01-06T21:09:52.831Z,59.05
2024-01-06T21:14:56.195Z,57.85
2024-01-06T21:19:58.705Z,59.07
2024-01-06T21:25:01.052Z,57.91
2024-01-06T21:30:06.393Z,59.32
2024-01-06T21:35:09.049Z,58.51
2024-01-06T21:40:11.512Z,57.54
2024-01-06T21:45:13.603Z,57.71
2024-01-06T21:50:15.586Z,58.03
2024-01-06T21:55:18.570Z,58.92
2024-01-06T22:00:32.263Z,58.24
2024-01-06T22:05:34.235Z,58.60
2024-01-06T22:10:36.218Z,60.14
2024-01-06T22:15:38.091Z,60.71
2024-01-06T22:20:40.175Z,61.38
2024-01-06T22:25:42.192Z,61.01
2024-01-06T22:30:44.425Z,61.29
2024-01-06T22:35:46.507Z,61.29
2024-01-06T22:40:48.868Z,61.19
2024-01-06T22:45:50.778Z,60.83
2024-01-06T22:51:18.206Z,60.38
2024-01-06T22:56:20.131Z,59.78
2024-01-06T23:01:22.283Z,60.10
2024-01-06T23:06:24.953Z,59.87
2024-01-06T23:11:27.655Z,58.24
2024-01-06T23:16:29.645Z,58.59
2024-01-06T23:21:31.657Z,58.45
2024-01-06T23:26:33.671Z,59.51
2024-01-06T23:31:35.729Z,59.94
2024-01-06T23:36:37.701Z,58.87
2024-01-06T23:41:39.567Z,59.02
2024-01-06T23:46:42.724Z,57.59
2024-01-06T23:51:44.711Z,59.34
2024-01-06T23:56:46.720Z,59.91
